Homerville, Ohio
Current Conditions -  °F | °C
As of 8:56 AM on Saturday 25 Oct 2014 (Local Time) from KBJJ Reporting Station
Overcast Overcast  
Wind Chill: 50°   Ceiling: 8000
Heat Index: 50°   Visibility: 7mi
Dew Point: 44°   Wind: 5mph
Humidity: 80%   Direction: 220°SW
Pressure: 29.94"   Gusts: NA
Location:  41.03°N, 82.13°W
Report Text: KBJJ 251256Z AUTO 22004KT 7SM BKN080 OVC090 10/07 A2994 RMK AO2 SLP139 T01000067 TSNO
Loading
Personal Weather Stations






























Interactive Weather Map New forecast layout! Learn more

10-Day Weather Forecast

Advertisements
Track Severe Weather on mobile